createdAt,value
2018-09-20T00:01:03.380Z,7.90
2018-09-20T00:03:31.524Z,8.77
2018-09-20T00:05:59.637Z,7.80
2018-09-20T00:08:27.737Z,8.20
2018-09-20T00:10:55.828Z,8.00
2018-09-20T00:13:23.916Z,7.33
2018-09-20T00:15:52.037Z,7.10
2018-09-20T00:18:20.121Z,7.10
2018-09-20T00:20:48.241Z,7.17
2018-09-20T00:23:16.348Z,7.60
2018-09-20T00:25:44.419Z,6.47
2018-09-20T00:28:12.494Z,5.33
2018-09-20T00:30:40.609Z,5.47
2018-09-20T00:33:08.684Z,6.50
2018-09-20T00:35:36.778Z,5.20
2018-09-20T00:38:05.285Z,5.20
2018-09-20T00:40:33.372Z,4.77
2018-09-20T00:43:01.484Z,7.03
2018-09-20T00:45:29.584Z,6.07
2018-09-20T00:47:57.732Z,5.27
2018-09-20T00:50:25.831Z,5.10
2018-09-20T00:52:53.889Z,4.77
2018-09-20T00:55:21.965Z,5.03
2018-09-20T00:57:50.029Z,4.37
2018-09-20T01:00:18.113Z,4.77
2018-09-20T01:02:46.177Z,3.80
2018-09-20T01:05:14.245Z,4.20
2018-09-20T01:07:42.340Z,4.10
2018-09-20T01:10:10.440Z,4.87
2018-09-20T01:12:38.517Z,4.73
2018-09-20T01:15:07.025Z,4.10
2018-09-20T01:17:35.085Z,4.63
2018-09-20T01:20:03.304Z,4.23
2018-09-20T01:22:31.405Z,4.27
2018-09-20T01:24:59.588Z,4.57
2018-09-20T01:27:27.720Z,5.37
2018-09-20T01:29:55.850Z,4.10
2018-09-20T01:32:23.918Z,4.00
2018-09-20T01:34:52.004Z,3.73
2018-09-20T01:37:20.095Z,5.10
2018-09-20T01:39:48.213Z,4.10
2018-09-20T01:42:16.291Z,4.10
2018-09-20T01:44:44.395Z,4.20
2018-09-20T01:47:12.481Z,4.30
2018-09-20T01:49:40.547Z,4.57
2018-09-20T01:52:08.620Z,4.37
2018-09-20T01:54:36.711Z,3.90
2018-09-20T01:57:04.792Z,4.27
2018-09-20T01:59:32.876Z,3.73
2018-09-20T02:02:01.017Z,4.33
2018-09-20T02:04:29.144Z,4.30
2018-09-20T02:06:57.225Z,4.23
2018-09-20T02:09:25.311Z,3.80
2018-09-20T02:11:53.395Z,4.27
2018-09-20T02:14:21.454Z,4.37
2018-09-20T02:16:49.604Z,3.93
2018-09-20T02:19:17.680Z,4.13
2018-09-20T02:21:45.792Z,3.87
2018-09-20T02:24:13.865Z,4.40
2018-09-20T02:26:41.984Z,4.70
2018-09-20T02:29:10.096Z,5.07
2018-09-20T02:31:38.189Z,5.10
2018-09-20T02:34:06.271Z,4.77
2018-09-20T02:36:34.372Z,4.43
2018-09-20T02:39:02.477Z,4.50
2018-09-20T02:41:30.606Z,5.10
2018-09-20T02:43:58.741Z,4.73
2018-09-20T02:46:26.855Z,4.70
2018-09-20T02:48:54.932Z,5.40
2018-09-20T02:51:23.059Z,4.50
2018-09-20T02:53:51.141Z,4.77
2018-09-20T02:56:19.225Z,4.50
2018-09-20T02:58:47.314Z,4.60
2018-09-20T03:01:15.381Z,4.90
2018-09-20T03:03:43.444Z,4.47
2018-09-20T03:06:11.569Z,4.17
2018-09-20T03:08:39.653Z,4.97
2018-09-20T03:11:07.722Z,4.37
2018-09-20T03:13:35.809Z,4.97
2018-09-20T03:16:03.916Z,4.20
2018-09-20T03:18:32.041Z,4.60
2018-09-20T03:21:00.234Z,4.47
2018-09-20T03:23:28.385Z,4.47
2018-09-20T03:25:56.485Z,4.87
2018-09-20T03:28:24.549Z,4.77
2018-09-20T03:30:52.744Z,4.43
2018-09-20T03:33:20.736Z,4.03
2018-09-20T03:35:48.837Z,4.40
2018-09-20T03:38:17.184Z,4.50
2018-09-20T03:40:45.264Z,4.50
2018-09-20T03:43:13.363Z,4.40
2018-09-20T03:45:41.433Z,4.60
2018-09-20T03:48:09.534Z,4.67
2018-09-20T03:50:37.629Z,4.73
2018-09-20T03:53:05.774Z,4.17
2018-09-20T03:55:33.904Z,5.13
2018-09-20T03:58:02.026Z,4.10
2018-09-20T04:00:30.228Z,3.93
2018-09-20T04:02:58.324Z,4.57
2018-09-20T04:05:26.479Z,4.53
2018-09-20T04:07:54.572Z,4.53
2018-09-20T04:11:01.302Z,4.50
2018-09-20T04:13:29.632Z,4.37
2018-09-20T04:15:57.848Z,4.87
2018-09-20T04:18:25.972Z,4.30
2018-09-20T04:20:54.129Z,4.57
2018-09-20T04:23:22.209Z,4.77
2018-09-20T04:25:50.317Z,3.90
2018-09-20T04:28:18.433Z,4.90
2018-09-20T04:30:46.629Z,4.73
2018-09-20T04:33:14.737Z,5.20
2018-09-20T04:35:42.825Z,4.37
2018-09-20T04:38:10.928Z,4.47
2018-09-20T04:40:39.081Z,4.73
2018-09-20T04:43:07.177Z,4.43
2018-09-20T04:45:35.382Z,4.77
2018-09-20T04:48:03.694Z,4.10
2018-09-20T04:50:31.801Z,4.77
2018-09-20T04:52:59.988Z,4.40
2018-09-20T04:55:28.248Z,4.23
2018-09-20T04:57:56.350Z,5.10
2018-09-20T05:00:24.429Z,4.80
2018-09-20T05:02:52.524Z,5.27
2018-09-20T05:05:20.652Z,4.37
2018-09-20T05:07:48.758Z,4.20
2018-09-20T05:10:16.855Z,4.37
2018-09-20T05:12:44.945Z,4.30
2018-09-20T05:15:13.092Z,5.13
2018-09-20T05:17:41.204Z,4.63
2018-09-20T05:20:09.301Z,4.83
2018-09-20T05:22:37.417Z,4.97
2018-09-20T05:25:05.515Z,5.17
2018-09-20T05:27:33.676Z,4.97
2018-09-20T05:30:01.832Z,4.70
2018-09-20T05:32:30.084Z,4.97
2018-09-20T05:34:58.197Z,3.87
2018-09-20T05:37:26.313Z,4.53
2018-09-20T05:39:54.621Z,4.37
2018-09-20T05:42:22.738Z,4.10
2018-09-20T05:44:50.885Z,4.50
2018-09-20T05:47:19.027Z,5.33
2018-09-20T05:49:47.121Z,5.23
2018-09-20T05:52:15.241Z,4.77
2018-09-20T05:54:43.318Z,5.33
2018-09-20T05:57:11.424Z,3.20
2018-09-20T05:59:39.505Z,4.90
2018-09-20T06:02:07.580Z,5.30
2018-09-20T06:04:35.726Z,5.30
2018-09-20T06:07:04.053Z,5.67
2018-09-20T06:09:32.337Z,5.10
2018-09-20T06:12:00.537Z,5.20
2018-09-20T06:14:28.730Z,4.17
2018-09-20T06:16:56.841Z,4.30
2018-09-20T06:19:24.960Z,5.07
2018-09-20T06:21:53.118Z,4.77
2018-09-20T06:24:21.178Z,4.80
2018-09-20T06:26:49.265Z,4.47
2018-09-20T06:29:17.496Z,4.10
2018-09-20T06:31:45.589Z,4.37
2018-09-20T06:34:13.708Z,5.20
2018-09-20T06:36:41.830Z,4.70
2018-09-20T06:39:11.655Z,3.80
2018-09-20T06:41:40.007Z,4.60
2018-09-20T06:44:08.152Z,5.20
2018-09-20T06:46:36.277Z,4.93
2018-09-20T06:49:04.393Z,5.10
2018-09-20T06:51:32.623Z,5.00
2018-09-20T06:54:00.766Z,4.97
2018-09-20T06:56:28.998Z,5.40
2018-09-20T06:58:57.081Z,4.83
2018-09-20T07:01:25.189Z,4.83
2018-09-20T07:03:53.286Z,4.70
2018-09-20T07:06:21.780Z,5.00
2018-09-20T07:08:49.946Z,4.67
2018-09-20T07:11:18.142Z,5.10
2018-09-20T07:13:46.279Z,4.67
2018-09-20T07:16:14.389Z,4.27
2018-09-20T07:18:42.567Z,4.83
2018-09-20T07:21:10.681Z,5.63
2018-09-20T07:23:38.838Z,4.40
2018-09-20T07:26:07.065Z,4.70
2018-09-20T07:28:35.211Z,4.60
2018-09-20T07:31:03.440Z,4.57
2018-09-20T07:33:31.677Z,3.47
2018-09-20T07:35:59.960Z,4.60
2018-09-20T07:38:28.126Z,4.77
2018-09-20T07:40:56.519Z,4.60
2018-09-20T07:43:24.672Z,4.70
2018-09-20T07:45:52.786Z,4.80
2018-09-20T07:48:21.839Z,3.70
2018-09-20T07:50:50.169Z,4.63
2018-09-20T07:53:18.269Z,4.50
2018-09-20T07:55:46.358Z,4.80
2018-09-20T07:58:14.556Z,4.63
2018-09-20T08:00:42.757Z,4.70
2018-09-20T08:03:10.833Z,4.33
2018-09-20T08:05:38.932Z,4.53
2018-09-20T08:08:07.121Z,4.00
2018-09-20T08:10:35.276Z,4.30
2018-09-20T08:13:03.816Z,3.70
2018-09-20T08:15:31.885Z,3.70
2018-09-20T08:17:59.979Z,4.60
2018-09-20T08:20:28.078Z,4.37
2018-09-20T08:22:56.260Z,4.30
2018-09-20T08:25:24.389Z,4.77
2018-09-20T08:27:52.540Z,4.50
2018-09-20T08:30:20.700Z,4.90
2018-09-20T08:32:48.897Z,4.87
2018-09-20T08:40:04.313Z,4.50
2018-09-20T08:42:32.474Z,4.93
2018-09-20T08:45:00.632Z,4.53
2018-09-20T08:47:28.802Z,4.60
2018-09-20T08:49:56.965Z,3.70
2018-09-20T08:52:25.403Z,3.70
2018-09-20T08:54:53.506Z,3.20
2018-09-20T08:57:21.800Z,3.70
2018-09-20T08:59:49.768Z,4.23
2018-09-20T09:02:17.909Z,3.37
2018-09-20T09:04:46.135Z,4.80
2018-09-20T09:07:14.329Z,3.53
2018-09-20T09:09:42.501Z,3.43
2018-09-20T09:12:10.751Z,4.03
2018-09-20T09:14:38.877Z,4.57
2018-09-20T09:17:06.958Z,3.90
2018-09-20T09:19:35.076Z,4.30
2018-09-20T09:22:03.143Z,4.30
2018-09-20T09:24:31.272Z,4.17
2018-09-20T09:26:59.549Z,4.40
2018-09-20T09:29:27.716Z,4.27
2018-09-20T09:31:55.940Z,4.53
2018-09-20T09:34:24.128Z,4.40
2018-09-20T09:36:52.233Z,3.60
2018-09-20T09:39:20.344Z,4.50
2018-09-20T09:41:48.553Z,3.10
2018-09-20T09:44:16.745Z,4.40
2018-09-20T09:46:45.069Z,3.83
2018-09-20T09:49:13.271Z,4.60
2018-09-20T09:51:41.625Z,4.70
2018-09-20T09:54:09.808Z,3.37
2018-09-20T09:56:38.051Z,4.70
2018-09-20T09:59:06.157Z,3.40
2018-09-20T10:01:34.254Z,4.73
2018-09-20T10:04:02.397Z,4.13
2018-09-20T10:06:30.537Z,3.77
2018-09-20T10:08:58.960Z,4.80
2018-09-20T10:11:27.147Z,3.73
2018-09-20T10:13:55.465Z,5.17
2018-09-20T10:16:23.592Z,4.57
2018-09-20T10:18:51.738Z,3.67
2018-09-20T10:21:19.872Z,4.10
2018-09-20T10:23:48.153Z,3.70
2018-09-20T10:26:16.289Z,4.37
2018-09-20T10:28:44.519Z,4.30
2018-09-20T10:31:12.844Z,4.23
2018-09-20T10:33:41.209Z,4.30
2018-09-20T10:36:16.485Z,3.17
2018-09-20T10:38:44.701Z,4.33
2018-09-20T10:41:12.897Z,4.57
2018-09-20T10:43:41.356Z,5.07
2018-09-20T10:46:09.560Z,4.53
2018-09-20T10:48:37.709Z,4.10
2018-09-20T10:51:06.122Z,4.37
2018-09-20T10:53:34.284Z,4.30
2018-09-20T10:56:02.494Z,4.70
2018-09-20T10:58:30.705Z,5.23
2018-09-20T11:00:58.786Z,4.30
2018-09-20T11:03:26.972Z,4.30
2018-09-20T11:05:55.129Z,4.40
2018-09-20T11:08:23.213Z,3.43
2018-09-20T11:10:51.353Z,4.30
2018-09-20T11:13:19.640Z,4.20
2018-09-20T11:15:47.997Z,4.97
2018-09-20T11:18:16.369Z,4.40
2018-09-20T11:20:44.542Z,4.30
2018-09-20T11:23:12.676Z,4.50
2018-09-20T11:25:40.844Z,4.60
2018-09-20T11:28:08.948Z,4.13
2018-09-20T11:30:37.055Z,4.00
2018-09-20T11:33:05.216Z,4.70
2018-09-20T11:35:33.336Z,4.37
2018-09-20T11:38:01.441Z,4.73
2018-09-20T11:40:29.564Z,4.07
2018-09-20T11:42:57.729Z,4.43
2018-09-20T11:45:25.821Z,4.73
2018-09-20T11:47:54.049Z,4.43
2018-09-20T11:50:22.185Z,4.43
2018-09-20T11:52:50.290Z,4.53
2018-09-20T11:55:18.437Z,4.03
2018-09-20T11:57:46.794Z,4.23
2018-09-20T12:00:19.475Z,4.83
2018-09-20T12:02:47.737Z,4.13
2018-09-20T12:05:15.900Z,4.23
2018-09-20T12:07:44.536Z,4.13
2018-09-20T12:10:12.725Z,4.10
2018-09-20T12:12:40.974Z,4.10
2018-09-20T12:15:09.280Z,3.40
2018-09-20T12:17:37.605Z,4.03
2018-09-20T12:20:05.963Z,3.27
2018-09-20T12:22:34.897Z,3.67
2018-09-20T12:25:03.345Z,4.77
2018-09-20T12:27:32.833Z,4.30
2018-09-20T12:30:03.140Z,4.50
2018-09-20T12:32:31.393Z,4.50
2018-09-20T12:34:59.648Z,4.33
2018-09-20T12:37:33.397Z,3.87
2018-09-20T12:40:02.559Z,4.43
2018-09-20T12:42:32.528Z,4.20
2018-09-20T12:45:01.492Z,5.03
2018-09-20T12:47:30.009Z,4.50
2018-09-20T12:49:58.956Z,4.77
2018-09-20T12:52:28.145Z,4.20
2018-09-20T12:54:57.558Z,3.10
2018-09-20T12:57:26.368Z,3.53
2018-09-20T12:59:54.720Z,4.17
2018-09-20T13:02:23.005Z,3.60
2018-09-20T13:04:51.473Z,3.23
2018-09-20T13:07:21.201Z,4.13
2018-09-20T13:13:51.067Z,4.60
2018-09-20T13:16:19.540Z,3.50
2018-09-20T13:18:47.833Z,3.90
2018-09-20T13:21:16.031Z,3.60
2018-09-20T13:23:44.302Z,4.30
2018-09-20T13:26:12.826Z,4.27
2018-09-20T13:28:41.071Z,3.43
2018-09-20T13:31:09.295Z,3.37
2018-09-20T13:33:37.546Z,3.63
2018-09-20T13:36:05.785Z,3.97
2018-09-20T13:38:34.039Z,4.03
2018-09-20T13:41:02.253Z,3.87
2018-09-20T13:43:30.398Z,3.70
2018-09-20T13:45:58.648Z,3.97
2018-09-20T13:48:26.980Z,3.43
2018-09-20T13:50:55.248Z,3.67
2018-09-20T13:53:23.800Z,4.60
2018-09-20T13:55:52.014Z,4.20
2018-09-20T13:58:20.259Z,4.03
2018-09-20T14:00:48.509Z,4.03
2018-09-20T14:03:16.837Z,4.23
2018-09-20T14:05:45.609Z,3.60
2018-09-20T14:08:13.981Z,3.47
2018-09-20T14:10:42.653Z,3.83
2018-09-20T14:13:11.077Z,3.47
2018-09-20T14:15:41.200Z,4.37
2018-09-20T14:18:09.450Z,4.30
2018-09-20T14:20:37.613Z,3.53
2018-09-20T14:23:06.040Z,4.13
2018-09-20T14:25:34.185Z,3.87
2018-09-20T14:28:04.878Z,3.97
2018-09-20T14:30:32.997Z,3.50
2018-09-20T14:33:01.276Z,4.40
2018-09-20T14:35:29.690Z,3.20
2018-09-20T14:37:58.001Z,3.87
2018-09-20T14:40:26.167Z,4.13
2018-09-20T14:42:56.903Z,3.97
2018-09-20T14:45:25.178Z,3.53
2018-09-20T14:47:53.869Z,4.07
2018-09-20T14:50:22.707Z,3.93
2018-09-20T14:52:50.945Z,3.97
2018-09-20T14:55:19.834Z,3.87
2018-09-20T14:57:48.247Z,3.50
2018-09-20T15:00:18.843Z,3.93
2018-09-20T15:02:47.127Z,3.63
2018-09-20T15:05:15.494Z,4.20
2018-09-20T15:07:43.812Z,3.80
2018-09-20T15:10:12.909Z,4.43
2018-09-20T15:12:41.556Z,3.90
2018-09-20T15:15:10.039Z,3.57
2018-09-20T15:17:38.334Z,3.87
2018-09-20T15:20:06.601Z,3.47
2018-09-20T15:22:35.018Z,3.60
2018-09-20T15:25:03.336Z,4.10
2018-09-20T15:27:31.906Z,3.70
2018-09-20T15:30:00.224Z,4.13
2018-09-20T15:32:28.515Z,3.83
2018-09-20T15:34:56.713Z,3.50
2018-09-20T15:37:24.909Z,3.80
2018-09-20T15:39:53.695Z,3.27
2018-09-20T15:42:21.873Z,3.37
2018-09-20T15:44:50.033Z,3.50
2018-09-20T15:47:18.201Z,3.83
2018-09-20T15:49:46.424Z,3.60
2018-09-20T15:52:14.817Z,3.53
2018-09-20T15:54:43.080Z,4.00
2018-09-20T15:57:11.910Z,3.70
2018-09-20T15:59:40.143Z,4.67
2018-09-20T16:02:08.596Z,4.20
2018-09-20T16:04:36.668Z,4.23
2018-09-20T16:07:04.833Z,4.57
2018-09-20T16:09:33.102Z,3.57
2018-09-20T16:12:01.609Z,3.53
2018-09-20T16:14:29.798Z,4.00
2018-09-20T16:16:58.170Z,4.27
2018-09-20T16:19:26.721Z,5.07
2018-09-20T16:21:55.716Z,4.93
2018-09-20T16:24:24.475Z,3.63
2018-09-20T16:26:52.696Z,3.50
2018-09-20T16:29:29.034Z,3.90
2018-09-20T16:32:09.397Z,4.10
2018-09-20T16:35:03.219Z,4.37
2018-09-20T16:37:46.947Z,4.77
2018-09-20T16:40:16.360Z,4.30
2018-09-20T16:42:45.386Z,4.40
2018-09-20T16:45:13.516Z,4.17
2018-09-20T16:47:41.813Z,3.93
2018-09-20T16:50:10.020Z,3.87
2018-09-20T16:52:38.665Z,4.23
2018-09-20T16:55:07.509Z,3.70
2018-09-20T16:57:35.688Z,4.00
2018-09-20T17:00:06.238Z,4.40
2018-09-20T17:02:34.385Z,4.00
2018-09-20T17:05:02.638Z,4.10
2018-09-20T17:07:30.774Z,4.47
2018-09-20T17:09:59.025Z,3.80
2018-09-20T17:12:27.405Z,4.40
2018-09-20T17:14:55.749Z,4.27
2018-09-20T17:17:23.813Z,4.03
2018-09-20T17:19:51.980Z,4.27
2018-09-20T17:22:20.173Z,3.97
2018-09-20T17:24:48.454Z,3.97
2018-09-20T17:27:16.709Z,3.83
2018-09-20T17:29:45.085Z,4.30
2018-09-20T17:32:13.376Z,4.10
2018-09-20T17:34:41.747Z,3.80
2018-09-20T17:37:10.664Z,4.37
2018-09-20T17:39:39.790Z,4.00
2018-09-20T17:42:09.231Z,3.63
2018-09-20T17:44:37.349Z,3.70
2018-09-20T17:47:06.156Z,4.07
2018-09-20T17:49:34.305Z,4.53
2018-09-20T17:52:02.609Z,3.87
2018-09-20T17:54:31.265Z,4.10
2018-09-20T17:56:59.881Z,5.00
2018-09-20T17:59:28.108Z,5.23
2018-09-20T18:01:56.313Z,4.50
2018-09-20T18:04:25.631Z,5.13
2018-09-20T18:06:54.393Z,3.80
2018-09-20T18:09:24.249Z,4.57
2018-09-20T18:11:55.495Z,4.83
2018-09-20T18:14:24.328Z,4.73
2018-09-20T18:16:52.933Z,4.33
2018-09-20T18:19:22.476Z,4.57
2018-09-20T18:21:51.014Z,4.73
2018-09-20T18:24:19.252Z,4.90
2018-09-20T18:26:47.750Z,5.40
2018-09-20T18:29:15.993Z,4.80
2018-09-20T18:31:44.323Z,5.10
2018-09-20T18:34:12.727Z,6.10
2018-09-20T18:36:41.261Z,5.47
2018-09-20T18:39:11.563Z,6.53
2018-09-20T18:41:39.859Z,5.80
2018-09-20T18:44:08.948Z,7.07
2018-09-20T18:46:37.295Z,6.97
2018-09-20T18:49:05.991Z,5.60
2018-09-20T18:51:35.226Z,5.57
2018-09-20T18:54:03.605Z,7.93
2018-09-20T18:56:32.053Z,6.30
2018-09-20T18:59:01.445Z,5.27
2018-09-20T19:01:29.618Z,5.67
2018-09-20T19:03:58.585Z,5.60
2018-09-20T19:06:27.589Z,5.40
2018-09-20T19:08:55.776Z,6.30
2018-09-20T19:11:23.995Z,5.63
2018-09-20T19:13:52.986Z,6.60
2018-09-20T19:16:21.237Z,5.77
2018-09-20T19:18:49.421Z,6.30
2018-09-20T19:21:17.983Z,6.37
2018-09-20T19:23:46.968Z,5.90
2018-09-20T19:26:15.435Z,5.87
2018-09-20T19:28:43.848Z,6.03
2018-09-20T19:31:12.054Z,5.57
2018-09-20T19:33:40.346Z,5.83
2018-09-20T19:36:08.644Z,6.00
2018-09-20T19:38:38.656Z,5.43
2018-09-20T19:41:07.094Z,5.57
2018-09-20T19:43:36.499Z,5.50
2018-09-20T19:46:04.736Z,5.97
2018-09-20T19:48:32.839Z,5.77
2018-09-20T19:51:00.932Z,6.10
2018-09-20T19:53:29.045Z,5.83
2018-09-20T19:55:57.179Z,5.07
2018-09-20T19:58:25.320Z,5.37
2018-09-20T20:00:53.462Z,5.33
2018-09-20T20:03:21.599Z,5.73
2018-09-20T20:05:49.713Z,4.50
2018-09-20T20:08:17.849Z,4.37
2018-09-20T20:10:45.973Z,5.00
2018-09-20T20:13:14.083Z,4.73
2018-09-20T20:15:42.257Z,4.43
2018-09-20T20:18:10.449Z,5.07
2018-09-20T20:20:38.600Z,4.90
2018-09-20T20:23:06.765Z,5.47
2018-09-20T20:25:34.908Z,5.13
2018-09-20T20:28:03.006Z,5.57
2018-09-20T20:30:31.104Z,4.90
2018-09-20T20:32:59.256Z,5.20
2018-09-20T20:35:27.362Z,4.90
2018-09-20T20:37:55.488Z,5.23
2018-09-20T20:40:23.593Z,5.47
2018-09-20T20:42:51.766Z,4.93
2018-09-20T20:45:19.901Z,6.03
2018-09-20T20:47:48.015Z,7.83
2018-09-20T20:50:16.151Z,4.60
2018-09-20T20:52:44.245Z,5.13
2018-09-20T20:55:12.401Z,4.67
2018-09-20T20:57:40.535Z,4.80
2018-09-20T21:00:08.650Z,5.60
2018-09-20T21:02:36.844Z,5.00
2018-09-20T21:08:31.220Z,4.70
2018-09-20T21:10:59.503Z,5.20
2018-09-20T21:13:27.841Z,5.90
2018-09-20T21:15:56.413Z,4.83
2018-09-20T21:18:24.553Z,5.00
2018-09-20T21:20:52.711Z,5.07
2018-09-20T21:23:20.875Z,4.77
2018-09-20T21:25:49.478Z,4.90
2018-09-20T21:28:17.653Z,5.20
2018-09-20T21:30:45.859Z,4.70
2018-09-20T21:33:13.990Z,5.07
2018-09-20T21:35:42.114Z,5.03
2018-09-20T21:38:10.226Z,4.57
2018-09-20T21:40:38.387Z,5.20
2018-09-20T21:43:06.522Z,4.77
2018-09-20T21:45:34.658Z,5.93
2018-09-20T21:48:02.797Z,4.93
2018-09-20T21:50:30.914Z,4.90
2018-09-20T21:52:59.077Z,4.50
2018-09-20T21:55:27.230Z,4.53
2018-09-20T21:57:55.417Z,4.17
2018-09-20T22:00:23.550Z,4.50
2018-09-20T22:02:57.190Z,5.13
2018-09-20T22:05:25.337Z,4.20
2018-09-20T22:07:53.506Z,4.97
2018-09-20T22:10:21.688Z,4.20
2018-09-20T22:12:49.821Z,3.70
2018-09-20T22:15:22.261Z,5.00
2018-09-20T22:17:50.426Z,3.73
2018-09-20T22:20:18.562Z,4.20
2018-09-20T22:22:46.776Z,4.03
2018-09-20T22:25:14.936Z,4.30
2018-09-20T22:27:43.126Z,4.97
2018-09-20T22:30:11.257Z,4.20
2018-09-20T22:32:39.376Z,4.30
2018-09-20T22:35:07.514Z,4.50
2018-09-20T22:37:35.623Z,4.30
2018-09-20T22:40:04.463Z,5.00
2018-09-20T22:42:32.593Z,4.90
2018-09-20T22:45:01.406Z,4.77
2018-09-20T22:47:29.525Z,4.27
2018-09-20T22:49:57.677Z,4.63
2018-09-20T22:52:25.805Z,4.40
2018-09-20T22:54:53.941Z,4.63
2018-09-20T22:57:22.054Z,4.20
2018-09-20T22:59:50.153Z,5.20
2018-09-20T23:02:18.334Z,4.60
2018-09-20T23:04:46.498Z,4.63
2018-09-20T23:07:14.633Z,4.57
2018-09-20T23:09:42.745Z,4.43
2018-09-20T23:12:10.857Z,4.53
2018-09-20T23:14:39.008Z,4.80
2018-09-20T23:17:07.228Z,4.80
2018-09-20T23:19:35.438Z,4.50
2018-09-20T23:22:03.569Z,4.90
2018-09-20T23:24:31.736Z,4.53
2018-09-20T23:26:59.849Z,4.43
2018-09-20T23:29:27.964Z,4.20
2018-09-20T23:31:56.210Z,4.63
2018-09-20T23:34:24.358Z,4.57
2018-09-20T23:36:52.493Z,4.70
2018-09-20T23:39:20.642Z,4.60
2018-09-20T23:41:48.798Z,5.13
2018-09-20T23:44:16.921Z,4.67
2018-09-20T23:46:45.037Z,4.73
2018-09-20T23:49:13.189Z,4.40
2018-09-20T23:51:41.289Z,4.57
2018-09-20T23:54:09.393Z,4.80
2018-09-20T23:56:37.613Z,5.07
2018-09-20T23:59:05.730Z,4.90
